Time;durP1;ratioP1;P1;durP2;ratioP2;P2;SDS_P1;SDS_P2;PMS_P1;PMS_P2;Temp;Humidity;BMP_temperature;BMP_pressure;BME280_temperature;BME280_humidity;BME280_pressure;Samples;Min_cycle;Max_cycle;Signal;HPM_P1;HPM_P2
2022/05/02 00:00:07;;;;;;;;;;;6.00;99.90;;;;;;5053846;28;20110;-65
2022/05/02 00:02:35;;;;;;;12.90;9.02;;;6.00;99.90;;;;;;5053014;28;19924;-64
2022/05/02 00:05:02;;;;;;;11.13;8.63;;;5.90;99.90;;;;;;5053935;28;20447;-64
2022/05/02 00:07:29;;;;;;;15.57;10.40;;;5.90;99.90;;;;;;5039758;28;20861;-65
2022/05/02 00:09:56;;;;;;;11.13;8.82;;;5.80;99.90;;;;;;5033376;28;20130;-65
2022/05/02 00:12:23;;;;;;;11.65;8.15;;;5.80;99.90;;;;;;5047124;28;20047;-65
2022/05/02 00:14:50;;;;;;;10.95;8.60;;;5.80;99.90;;;;;;5053122;28;20044;-65
2022/05/02 00:17:17;;;;;;;13.63;9.98;;;5.80;99.90;;;;;;5046112;28;20044;-65
2022/05/02 00:19:44;;;;;;;15.02;9.55;;;5.80;99.90;;;;;;5052715;28;20044;-64
2022/05/02 00:22:10;;;;;;;12.07;8.43;;;5.80;99.90;;;;;;5055168;28;20052;-65
2022/05/02 00:24:37;;;;;;;;;;;5.70;99.90;;;;;;5057422;28;20044;-65
2022/05/02 00:27:05;;;;;;;10.55;8.25;;;5.70;99.90;;;;;;5036740;28;20399;-65
2022/05/02 00:29:32;;;;;;;11.35;9.10;;;5.70;99.90;;;;;;5053555;28;20051;-64
2022/05/02 00:31:59;;;;;;;11.30;8.45;;;5.70;99.90;;;;;;5038949;28;20094;-65
2022/05/02 00:34:25;;;;;;;;;;;5.70;99.90;;;;;;5057653;28;20603;-65
2022/05/02 00:36:52;;;;;;;9.52;7.90;;;5.70;99.90;;;;;;5055674;28;19967;-66
2022/05/02 00:39:19;;;;;;;;;;;5.70;99.90;;;;;;5047291;28;20052;-65
2022/05/02 00:41:46;;;;;;;9.85;7.70;;;5.70;99.90;;;;;;5036827;28;19956;-65
2022/05/02 00:44:12;;;;;;;;;;;5.60;99.90;;;;;;5037375;28;20041;-65
2022/05/02 00:46:40;;;;;;;10.15;8.15;;;5.60;99.90;;;;;;5036938;28;20449;-65
2022/05/02 00:49:06;;;;;;;9.65;7.55;;;5.60;99.90;;;;;;5036283;28;20126;-65
2022/05/02 00:51:33;;;;;;;11.55;8.73;;;5.60;99.90;;;;;;5037048;28;20837;-65
2022/05/02 00:54:01;;;;;;;13.23;9.68;;;5.50;99.90;;;;;;5018325;28;20860;-65
2022/05/02 00:56:29;;;;;;;10.32;8.50;;;5.50;99.90;;;;;;5036768;28;20871;-65
2022/05/02 00:58:55;;;;;;;13.07;8.02;;;5.40;99.90;;;;;;5035061;28;20071;-65
2022/05/02 01:01:22;;;;;;;;;;;5.30;99.90;;;;;;5037553;28;20049;-65
2022/05/02 01:03:49;;;;;;;10.20;7.80;;;5.30;99.90;;;;;;5036137;28;19933;-65
2022/05/02 01:09:03;;;;;;;12.48;8.43;;;5.20;99.90;;;;;;5043163;28;20549;-65
2022/05/02 01:11:30;;;;;;;11.77;8.98;;;5.20;99.90;;;;;;5042607;28;20147;-65
2022/05/02 01:13:56;;;;;;;;;;;5.20;99.90;;;;;;5057053;28;20605;-65
2022/05/02 01:16:26;;;;;;;9.90;7.18;;;5.20;99.90;;;;;;5049929;28;19924;-65
2022/05/02 01:18:56;;;;;;;10.20;7.75;;;5.10;99.90;;;;;;5055315;28;20045;-65
2022/05/02 01:21:25;;;;;;;11.57;7.88;;;5.10;99.90;;;;;;5055753;28;20048;-65
2022/05/02 01:23:56;;;;;;;9.32;7.78;;;5.10;99.90;;;;;;5055979;28;20051;-65
2022/05/02 01:26:23;;;;;;;10.57;8.13;;;5.00;99.90;;;;;;5055906;28;20787;-65
2022/05/02 01:28:52;;;;;;;;;;;5.00;99.90;;;;;;5049891;28;20068;-66
2022/05/02 01:31:19;;;;;;;11.98;8.75;;;5.00;99.90;;;;;;5055801;28;20018;-65
2022/05/02 01:33:47;;;;;;;10.98;8.38;;;5.00;99.90;;;;;;5055433;28;20546;-65
2022/05/02 01:36:15;;;;;;;10.25;7.43;;;5.00;99.90;;;;;;5055678;28;20058;-65
2022/05/02 01:38:42;;;;;;;12.38;9.55;;;5.00;99.90;;;;;;5054556;28;20048;-65
2022/05/02 01:41:10;;;;;;;11.93;8.35;;;5.00;99.90;;;;;;5036846;28;20044;-65
2022/05/02 01:43:38;;;;;;;12.75;9.10;;;5.00;99.90;;;;;;5035299;28;20047;-65
2022/05/02 01:46:07;;;;;;;12.50;9.30;;;5.00;99.90;;;;;;5035917;28;20049;-65
2022/05/02 01:48:34;;;;;;;11.05;8.10;;;4.90;99.90;;;;;;5034112;28;20041;-65
2022/05/02 01:51:01;;;;;;;18.35;8.90;;;5.00;99.90;;;;;;5035131;28;20759;-64
2022/05/02 01:53:28;;;;;;;12.88;10.35;;;4.90;99.90;;;;;;5035333;28;20158;-65
2022/05/02 01:55:55;;;;;;;12.45;8.32;;;4.90;99.90;;;;;;5035630;28;20060;-65
2022/05/02 01:58:23;;;;;;;10.82;8.50;;;4.90;99.90;;;;;;5034554;28;20061;-65
2022/05/02 02:00:50;;;;;;;12.65;8.50;;;4.90;99.90;;;;;;5035151;28;20053;-65
2022/05/02 02:03:17;;;;;;;11.00;8.95;;;4.90;99.90;;;;;;5035580;28;20624;-65
2022/05/02 02:05:50;;;;;;;12.32;8.88;;;4.80;99.90;;;;;;5034359;28;20037;-65
2022/05/02 02:08:28;;;;;;;11.95;8.68;;;4.80;99.90;;;;;;5048476;28;20079;-65
2022/05/02 02:10:58;;;;;;;12.98;8.68;;;4.80;99.90;;;;;;5036286;28;20048;-65
2022/05/02 02:13:25;;;;;;;11.63;8.07;;;4.70;99.90;;;;;;5055003;28;20053;-65
2022/05/02 02:15:52;;;;;;;10.90;8.30;;;4.70;99.90;;;;;;5053981;28;20126;-65
2022/05/02 02:18:19;;;;;;;11.77;8.43;;;4.60;99.90;;;;;;5015762;28;20048;-65
2022/05/02 02:20:47;;;;;;;;;;;4.60;99.90;;;;;;5035411;28;20422;-65
2022/05/02 02:23:15;;;;;;;9.73;7.50;;;4.60;99.90;;;;;;5034825;28;19925;-65
2022/05/02 02:25:43;;;;;;;13.88;10.18;;;4.60;99.90;;;;;;5035174;28;20044;-66
2022/05/02 02:28:12;;;;;;;12.75;9.40;;;4.50;99.90;;;;;;5038943;28;20037;-65
2022/05/02 02:30:38;;;;;;;13.57;10.35;;;4.50;99.90;;;;;;5034882;28;20091;-65
2022/05/02 02:33:06;;;;;;;;;;;4.50;99.90;;;;;;5035704;28;20473;-65
2022/05/02 02:35:32;;;;;;;13.95;10.10;;;4.50;99.90;;;;;;5035068;28;19947;-66
2022/05/02 02:37:59;;;;;;;11.13;8.60;;;4.50;99.90;;;;;;5033934;28;20103;-66
2022/05/02 02:40:26;;;;;;;12.55;9.00;;;4.50;99.90;;;;;;5039121;28;20151;-65
2022/05/02 02:42:53;;;;;;;13.05;9.38;;;4.50;99.90;;;;;;5036573;28;20357;-65
2022/05/02 02:45:20;;;;;;;12.13;8.95;;;4.40;99.90;;;;;;5033855;28;20832;-65
2022/05/02 02:47:47;;;;;;;16.20;10.00;;;4.40;99.90;;;;;;5033739;28;20041;-65
2022/05/02 02:50:13;;;;;;;;;;;4.40;99.90;;;;;;5033672;28;20649;-65
2022/05/02 02:52:41;;;;;;;11.65;8.85;;;4.50;99.90;;;;;;5034601;28;19959;-65
2022/05/02 02:55:08;;;;;;;12.77;9.23;;;4.40;99.90;;;;;;5034129;28;20045;-65
2022/05/02 02:57:34;;;;;;;11.30;8.85;;;4.40;99.90;;;;;;5033828;28;20154;-65
2022/05/02 03:00:02;;;;;;;;;;;4.40;99.90;;;;;;5034347;28;20045;-65
2022/05/02 03:02:29;;;;;;;12.38;8.82;;;4.40;99.90;;;;;;5038206;28;20641;-65
2022/05/02 03:07:41;;;;;;;10.48;7.38;;;4.40;99.90;;;;;;5052649;28;20120;-65
2022/05/02 03:10:08;;;;;;;9.25;7.38;;;4.40;99.90;;;;;;5054062;28;20046;-65
2022/05/02 03:12:35;;;;;;;;;;;4.40;99.90;;;;;;5038534;28;20102;-65
2022/05/02 03:15:02;;;;;;;11.27;8.20;;;4.40;99.90;;;;;;5033998;28;19924;-65
2022/05/02 03:17:29;;;;;;;10.80;8.02;;;4.30;99.90;;;;;;5047151;28;20097;-65
2022/05/02 03:19:56;;;;;;;12.40;8.70;;;4.30;99.90;;;;;;5053229;28;20391;-65
2022/05/02 03:22:22;;;;;;;;;;;4.30;99.90;;;;;;5054693;28;20376;-65
2022/05/02 03:24:49;;;;;;;13.60;7.82;;;4.30;99.90;;;;;;5035422;28;20410;-65
2022/05/02 03:27:16;;;;;;;11.25;8.27;;;4.30;99.90;;;;;;5048999;28;20037;-65
2022/05/02 03:29:43;;;;;;;;;;;4.30;99.90;;;;;;5052566;28;20615;-65
2022/05/02 03:32:10;;;;;;;12.75;8.38;;;4.20;99.90;;;;;;5054319;28;19950;-66
2022/05/02 03:34:37;;;;;;;12.88;8.23;;;4.20;99.90;;;;;;5053778;28;20264;-65
2022/05/02 03:37:04;;;;;;;10.93;7.60;;;4.20;99.90;;;;;;5052487;28;20117;-65
2022/05/02 03:39:31;;;;;;;9.93;8.15;;;4.20;99.90;;;;;;5052720;28;20201;-65
2022/05/02 03:41:58;;;;;;;10.43;7.65;;;4.10;99.90;;;;;;5032423;28;20134;-65
2022/05/02 03:44:25;;;;;;;;;;;4.10;99.90;;;;;;5033625;28;20048;-65
2022/05/02 03:46:51;;;;;;;13.43;8.25;;;4.10;99.90;;;;;;5032724;28;20147;-65
2022/05/02 03:49:18;;;;;;;;;;;4.00;99.90;;;;;;5034123;28;20041;-65
2022/05/02 03:51:45;;;;;;;10.52;8.13;;;4.00;99.90;;;;;;5033324;28;19924;-65
2022/05/02 03:54:12;;;;;;;10.90;8.52;;;4.00;99.90;;;;;;5033431;28;20055;-65
2022/05/02 03:56:38;;;;;;;10.07;8.00;;;4.00;99.90;;;;;;5036170;28;20045;-65
2022/05/02 03:59:05;;;;;;;;;;;3.90;99.90;;;;;;5037926;28;20041;-65
2022/05/02 04:01:36;;;;;;;15.93;8.85;;;3.90;99.90;;;;;;5037551;28;19932;-65
2022/05/02 04:04:03;;;;;;;12.25;8.75;;;3.90;99.90;;;;;;5037274;28;20049;-65
2022/05/02 04:06:30;;;;;;;10.98;8.15;;;3.90;99.90;;;;;;5023884;28;20146;-65
2022/05/02 04:08:57;;;;;;;15.77;10.30;;;3.90;99.90;;;;;;5056527;28;20986;-65
2022/05/02 04:11:24;;;;;;;13.60;8.63;;;3.90;99.90;;;;;;5033625;28;20041;-65
2022/05/02 04:13:51;;;;;;;;;;;4.00;99.90;;;;;;5037582;28;20056;-65
2022/05/02 04:16:18;;;;;;;10.63;8.30;;;4.00;99.90;;;;;;5025039;28;19970;-64
2022/05/02 04:18:45;;;;;;;14.05;9.27;;;4.00;99.90;;;;;;5017672;28;20451;-64
2022/05/02 04:21:12;;;;;;;14.02;9.40;;;4.00;99.90;;;;;;5037249;28;20478;-64
2022/05/02 04:23:39;;;;;;;12.82;8.77;;;4.00;99.90;;;;;;5019297;28;20052;-64
2022/05/02 04:26:06;;;;;;;;;;;4.00;99.90;;;;;;5037715;28;20045;-64
2022/05/02 04:28:34;;;;;;;12.50;8.23;;;4.00;99.90;;;;;;5041512;28;19950;-64
2022/05/02 04:31:01;;;;;;;9.73;7.32;;;4.00;99.90;;;;;;5036404;28;20774;-65
2022/05/02 04:33:28;;;;;;;11.18;7.13;;;4.00;99.90;;;;;;5019087;28;20040;-65
2022/05/02 04:35:55;;;;;;;;;;;4.10;99.90;;;;;;5018835;28;20798;-64
2022/05/02 04:38:22;;;;;;;16.15;8.38;;;4.10;99.90;;;;;;5036055;28;19928;-65
2022/05/02 04:40:49;;;;;;;11.98;9.07;;;4.10;99.90;;;;;;5047501;28;20041;-64
2022/05/02 04:43:16;;;;;;;;;;;4.20;99.90;;;;;;5045762;28;20041;-65
2022/05/02 04:45:42;;;;;;;14.73;8.70;;;4.20;99.90;;;;;;5034796;28;19925;-65
2022/05/02 04:48:10;;;;;;;11.70;8.20;;;4.20;99.90;;;;;;5035329;28;20041;-65
2022/05/02 04:50:37;;;;;;;12.50;7.88;;;4.30;99.90;;;;;;5018575;28;20044;-65
2022/05/02 04:53:04;;;;;;;13.18;9.25;;;4.30;99.90;;;;;;5036687;28;20037;-65
2022/05/02 04:55:31;;;;;;;12.63;8.82;;;4.30;99.90;;;;;;5035019;28;20081;-64
2022/05/02 04:57:57;;;;;;;;;;;4.40;99.90;;;;;;5036401;28;20059;-64
2022/05/02 05:00:24;;;;;;;13.32;8.60;;;4.50;99.90;;;;;;5036739;28;19924;-64
2022/05/02 05:02:51;;;;;;;10.43;7.97;;;4.50;99.90;;;;;;5036332;28;20068;-65
2022/05/02 05:05:25;;;;;;;10.82;8.45;;;4.60;99.90;;;;;;5035636;28;20390;-64
2022/05/02 05:07:52;;;;;;;;;;;4.60;99.90;;;;;;5050533;28;20052;-64
2022/05/02 05:10:19;;;;;;;11.45;8.43;;;4.70;99.90;;;;;;5055600;28;20010;-65
2022/05/02 05:12:51;;;;;;;;;;;4.70;99.90;;;;;;5039550;28;20068;-65
2022/05/02 05:18:26;;;;;;;13.75;8.80;;;4.80;99.90;;;;;;5035277;28;20135;-65
2022/05/02 05:21:03;;;;;;;13.90;9.02;;;4.90;99.90;;;;;;5035660;28;20048;-65
2022/05/02 05:24:07;;;;;;;13.48;9.43;;;4.90;99.90;;;;;;5036326;28;20051;-65
2022/05/02 05:26:39;;;;;;;10.82;8.15;;;5.10;99.90;;;;;;5017232;28;20068;-57
2022/05/02 05:29:37;;;;;;;11.18;8.55;;;5.10;99.90;;;;;;5040316;28;20738;-55
2022/05/02 05:32:27;;;;;;;12.73;9.43;;;5.20;99.90;;;;;;5036175;28;20440;-55
2022/05/02 05:34:57;;;;;;;10.70;8.35;;;5.30;99.90;;;;;;5035645;28;20045;-57
2022/05/02 05:38:01;;;;;;;11.15;7.75;;;5.40;99.90;;;;;;5034989;28;20623;-57
2022/05/02 05:40:40;;;;;;;8.00;6.82;;;5.40;99.90;;;;;;5043904;28;20643;-56
2022/05/02 05:43:32;;;;;;;9.25;7.65;;;5.50;99.90;;;;;;5054124;28;20052;-56
2022/05/02 05:46:39;;;;;;;11.30;8.45;;;5.60;99.90;;;;;;5016285;28;20041;-57
2022/05/02 05:49:28;;;;;;;10.63;8.05;;;5.70;99.90;;;;;;5034335;28;20118;-57
2022/05/02 05:52:11;;;;;;;12.18;8.07;;;5.70;99.90;;;;;;5000997;28;20049;-54
2022/05/02 05:55:00;;;;;;;12.40;7.55;;;5.80;99.90;;;;;;5035192;28;20119;-56
2022/05/02 05:57:49;;;;;;;9.63;7.88;;;6.00;99.90;;;;;;5016728;28;20578;-56
2022/05/02 06:00:17;;;;;;;9.00;7.75;;;6.00;99.90;;;;;;5034841;28;20095;-56
2022/05/02 06:03:01;;;;;;;8.48;7.47;;;6.10;99.90;;;;;;5035406;28;20453;-57
2022/05/02 06:05:29;;;;;;;13.00;8.50;;;6.20;99.90;;;;;;5034709;28;20056;-57
2022/05/02 06:07:56;;;;;;;10.73;7.75;;;6.30;99.90;;;;;;5050216;28;20044;-55
2022/05/02 06:10:28;;;;;;;11.10;7.88;;;6.40;99.90;;;;;;5054040;28;20052;-56
2022/05/02 06:12:56;;;;;;;10.50;8.32;;;6.50;99.90;;;;;;5036844;28;20052;-55
2022/05/02 06:21:09;;;;;;;14.13;10.60;;;6.90;99.90;;;;;;5021606;28;20061;-56
2022/05/02 06:23:40;;;;;;;14.45;11.25;;;7.10;99.90;;;;;;5035023;28;20037;-56
2022/05/02 06:26:08;;;;;;;14.55;11.68;;;7.20;99.90;;;;;;5034903;28;20048;-55
2022/05/02 06:28:43;;;;;;;14.65;11.18;;;7.40;99.90;;;;;;5024756;28;20681;-56
2022/05/02 06:31:26;;;;;;;19.40;12.25;;;7.50;99.90;;;;;;5054485;28;20060;-54
2022/05/02 06:33:56;;;;;;;18.95;11.65;;;7.60;99.90;;;;;;5036287;28;20660;-56
2022/05/02 06:36:31;;;;;;;18.30;13.05;;;7.70;99.90;;;;;;5036621;28;20048;-56
2022/05/02 06:39:30;;;;;;;18.00;12.55;;;7.90;99.90;;;;;;5053045;28;20049;-57
2022/05/02 06:42:20;;;;;;;22.48;15.25;;;8.00;99.90;;;;;;5033838;28;20055;-56
2022/05/02 06:45:09;;;;;;;23.33;14.50;;;8.20;99.90;;;;;;5033736;28;20633;-57
2022/05/02 06:48:14;;;;;;;22.40;15.27;;;8.30;99.90;;;;;;5034990;28;20128;-55
2022/05/02 06:50:46;;;;;;;29.85;20.20;;;8.40;99.90;;;;;;5034446;28;20041;-57
2022/05/02 06:53:36;;;;;;;24.70;18.50;;;8.60;99.90;;;;;;5034587;28;20037;-55
2022/05/02 06:56:21;;;;;;;34.75;22.27;;;8.70;99.90;;;;;;5025788;28;20575;-57
2022/05/02 06:59:29;;;;;;;30.98;21.20;;;8.80;99.90;;;;;;5033598;28;20051;-56
2022/05/02 07:01:59;;;;;;;33.97;23.42;;;8.90;99.90;;;;;;5032072;28;20132;-55
2022/05/02 07:04:55;;;;;;;33.58;23.80;;;9.00;99.90;;;;;;5016870;28;20041;-55
2022/05/02 07:07:42;;;;;;;32.50;21.15;;;9.20;99.90;;;;;;5015114;28;20044;-54
2022/05/02 07:10:23;;;;;;;34.87;23.33;;;9.30;99.90;;;;;;5034034;28;20607;-56
2022/05/02 07:12:59;;;;;;;34.05;24.20;;;9.40;99.90;;;;;;5050476;28;20044;-47
2022/05/02 07:15:32;;;;;;;33.45;22.02;;;9.60;99.90;;;;;;5032865;28;20055;-48
2022/05/02 07:18:08;;;;;;;30.13;21.15;;;9.70;99.90;;;;;;5032578;28;20044;-50
2022/05/02 07:20:41;;;;;;;29.23;21.10;;;9.90;99.90;;;;;;5054157;28;20849;-49
2022/05/02 07:23:23;;;;;;;27.10;19.45;;;10.00;99.90;;;;;;5054016;28;20103;-56
2022/05/02 07:26:13;;;;;;;31.35;22.67;;;10.10;99.90;;;;;;5053547;28;20051;-53
2022/05/02 07:28:50;;;;;;;38.85;22.33;;;10.30;99.90;;;;;;5029385;28;20052;-55
2022/05/02 07:31:22;;;;;;;33.28;21.38;;;10.40;99.90;;;;;;5053080;28;20052;-56
2022/05/02 07:33:52;;;;;;;36.35;22.70;;;10.50;99.90;;;;;;5053362;28;20041;-56
2022/05/02 07:36:22;;;;;;;29.27;21.23;;;10.60;99.90;;;;;;5036034;28;20044;-57
2022/05/02 07:39:21;;;;;;;30.92;20.50;;;10.80;99.90;;;;;;5052443;28;20051;-56
2022/05/02 07:41:50;;;;;;;30.80;21.20;;;11.00;99.90;;;;;;5007699;28;20061;-58
2022/05/02 07:44:18;;;;;;;31.60;21.20;;;11.10;99.90;;;;;;5033714;28;20047;-57
2022/05/02 07:46:47;;;;;;;29.50;21.70;;;11.10;99.90;;;;;;5036389;28;20678;-57
2022/05/02 07:49:16;;;;;;;29.88;20.50;;;11.30;99.90;;;;;;5032626;28;20407;-57
2022/05/02 07:51:50;;;;;;;25.83;20.02;;;11.30;99.90;;;;;;5033760;28;20140;-57
2022/05/02 07:54:20;;;;;;;32.10;20.90;;;11.50;99.90;;;;;;5033704;28;20106;-54
2022/05/02 07:56:49;;;;;;;31.08;20.90;;;12.00;99.90;;;;;;5032799;28;20152;-57
2022/05/02 07:59:19;;;;;;;31.83;21.85;;;12.60;99.90;;;;;;5033207;28;20045;-56
2022/05/02 08:01:46;;;;;;;32.30;21.50;;;13.20;99.90;;;;;;5032781;28;20041;-56
2022/05/02 08:04:15;;;;;;;30.80;21.33;;;13.80;99.90;;;;;;5033257;28;20052;-57
2022/05/02 08:06:51;;;;;;;30.73;20.92;;;14.10;99.90;;;;;;5038723;28;20041;-56
2022/05/02 08:09:34;;;;;;;28.20;19.90;;;14.50;99.90;;;;;;5052876;28;20044;-58
2022/05/02 08:12:16;;;;;;;27.23;18.85;;;14.90;99.90;;;;;;5052311;28;20084;-58
2022/05/02 08:14:59;;;;;;;24.63;18.92;;;15.20;99.90;;;;;;5052415;28;20079;-58
2022/05/02 08:17:31;;;;;;;31.23;20.00;;;15.50;99.90;;;;;;5045887;28;20040;-55
2022/05/02 08:20:12;;;;;;;29.95;20.20;;;15.80;99.90;;;;;;5052771;28;20055;-57
2022/05/02 08:28:55;;;;;;;23.67;17.10;;;15.90;99.90;;;;;;5042967;28;20080;-56
2022/05/02 08:31:52;;;;;;;21.15;15.25;;;15.80;99.90;;;;;;5032517;28;20714;-56
2022/05/02 08:34:44;;;;;;;22.38;17.08;;;15.90;99.90;;;;;;5014747;28;20045;-58
2022/05/02 08:37:29;;;;;;;20.70;15.57;;;15.90;99.90;;;;;;5032379;28;20049;-57
2022/05/02 08:40:04;;;;;;;19.10;14.73;;;15.70;99.90;;;;;;5036399;28;20036;-55
2022/05/02 08:43:09;;;;;;;25.50;16.08;;;16.00;99.90;;;;;;5053783;28;20090;-57
2022/05/02 08:46:06;;;;;;;20.75;14.52;;;16.40;99.90;;;;;;5056301;28;20864;-57
2022/05/02 08:52:11;;;;;;;15.05;11.45;;;17.00;99.90;;;;;;5036457;28;20041;-56
2022/05/02 08:55:01;;;;;;;13.32;10.43;;;17.00;99.90;;;;;;5036745;28;20041;-57
2022/05/02 08:58:05;;;;;;;12.13;8.13;;;17.00;99.90;;;;;;5017484;28;20045;-58
2022/05/02 09:01:03;;;;;;;13.15;8.57;;;17.30;99.90;;;;;;5035921;28;20596;-56
2022/05/02 09:04:07;;;;;;;11.68;7.97;;;17.50;97.90;;;;;;5036161;28;20569;-58
2022/05/02 09:06:52;;;;;;;9.18;7.82;;;17.70;96.30;;;;;;5040970;28;20437;-57
2022/05/02 09:09:28;;;;;;;11.25;7.95;;;17.90;94.00;;;;;;5055176;28;20140;-57
2022/05/02 09:12:23;;;;;;;9.32;7.22;;;18.00;93.40;;;;;;5046007;28;20045;-55
2022/05/02 09:15:28;;;;;;;11.02;8.45;;;18.10;93.20;;;;;;5035635;28;20087;-57
2022/05/02 09:18:17;;;;;;;8.38;6.82;;;18.40;92.20;;;;;;5052770;28;20047;-56
2022/05/02 09:21:19;;;;;;;9.15;7.00;;;18.70;88.60;;;;;;5055638;28;20056;-55
2022/05/02 09:24:23;;;;;;;9.27;7.80;;;18.90;87.10;;;;;;5011426;28;20067;-57
2022/05/02 09:27:02;;;;;;;10.45;9.02;;;19.10;87.00;;;;;;5037094;28;20090;-56
2022/05/02 09:29:32;;;;;;;9.18;7.60;;;19.30;88.70;;;;;;5052092;28;20098;-55
2022/05/02 09:32:07;;;;;;;9.13;7.93;;;19.40;81.90;;;;;;5055938;28;20047;-57
2022/05/02 09:34:45;;;;;;;11.07;8.65;;;19.50;83.00;;;;;;5038050;28;20727;-57
2022/05/02 09:37:29;;;;;;;10.02;7.85;;;19.70;82.60;;;;;;5054446;28;20052;-56
2022/05/02 09:40:04;;;;;;;8.95;7.00;;;19.80;81.70;;;;;;5051147;28;20041;-58
2022/05/02 09:42:42;;;;;;;9.68;8.50;;;19.80;78.90;;;;;;5035350;28;20541;-57
2022/05/02 09:51:48;;;;;;;6.03;5.25;;;20.10;76.50;;;;;;5053156;28;20102;-57
2022/05/02 09:57:21;;;;;;;10.88;7.72;;;20.30;74.10;;;;;;5054896;28;20044;-56
2022/05/02 10:01:06;;;;;;;14.63;7.47;;;20.40;73.50;;;;;;5036075;28;20045;-53
2022/05/02 10:02:45;;;;;;;7.80;6.78;;;20.50;72.60;;;;;;5055339;28;20052;-56
2022/05/02 10:05:36;;;;;;;10.38;7.38;;;20.60;70.70;;;;;;5054973;28;20056;-56
2022/05/02 10:08:13;;;;;;;9.27;7.80;;;20.70;71.00;;;;;;5054656;28;20470;-56
2022/05/02 10:10:56;;;;;;;10.43;7.45;;;20.50;67.60;;;;;;5054480;28;20047;-56
2022/05/02 10:13:59;;;;;;;10.25;7.88;;;20.40;67.30;;;;;;5033675;28;20095;-55
2022/05/02 10:16:47;;;;;;;8.88;7.75;;;20.30;69.40;;;;;;5040127;28;20049;-56
2022/05/02 10:19:33;;;;;;;10.23;8.60;;;20.30;70.80;;;;;;5034822;28;21030;-58
2022/05/02 10:22:24;;;;;;;10.02;7.78;;;20.20;70.20;;;;;;5034614;28;20053;-57
2022/05/02 10:24:57;;;;;;;10.32;8.68;;;20.20;69.60;;;;;;5035379;28;20040;-56
2022/05/02 10:27:35;;;;;;;9.80;7.95;;;20.30;69.60;;;;;;5038556;28;20040;-55
2022/05/02 10:30:07;;;;;;;11.10;8.25;;;20.20;67.20;;;;;;5034352;28;20041;-58
2022/05/02 10:32:42;;;;;;;8.13;7.10;;;20.10;67.70;;;;;;5034305;28;20095;-56
2022/05/02 10:35:14;;;;;;;8.48;7.00;;;20.00;67.80;;;;;;5039772;28;20036;-57
2022/05/02 10:37:43;;;;;;;6.60;5.78;;;20.20;64.90;;;;;;5051985;28;20123;-55
2022/05/02 10:40:13;;;;;;;6.55;5.85;;;20.20;64.10;;;;;;5052809;28;20041;-56
2022/05/02 10:42:50;;;;;;;5.40;4.90;;;20.30;65.60;;;;;;5049905;28;20036;-58
2022/05/02 10:45:17;;;;;;;6.43;5.63;;;20.50;62.30;;;;;;5035030;28;20041;-56
2022/05/02 10:47:50;;;;;;;5.60;5.00;;;20.60;63.30;;;;;;5053539;28;20538;-57
2022/05/02 10:50:30;;;;;;;6.10;5.50;;;20.60;58.90;;;;;;5019336;28;20044;-54
2022/05/02 10:53:09;;;;;;;7.00;5.72;;;20.60;63.10;;;;;;5034363;28;21038;-56
2022/05/02 10:55:46;;;;;;;5.65;4.07;;;20.60;59.90;;;;;;5015641;28;20060;-57
2022/05/02 10:58:13;;;;;;;6.72;4.80;;;20.50;60.80;;;;;;5015234;28;20044;-55
2022/05/02 11:01:06;;;;;;;5.15;4.38;;;20.60;58.20;;;;;;5033053;28;20040;-57
2022/05/02 11:04:08;;;;;;;6.13;5.45;;;20.60;58.40;;;;;;5037307;28;20773;-57
2022/05/02 11:07:10;;;;;;;7.05;5.53;;;20.70;58.90;;;;;;5051945;28;20142;-56
2022/05/02 11:09:50;;;;;;;7.22;4.70;;;20.90;58.20;;;;;;5021274;28;20040;-58
2022/05/02 11:12:22;;;;;;;5.03;4.60;;;21.00;56.60;;;;;;5022706;28;20769;-58
2022/05/02 11:15:04;;;;;;;4.53;4.13;;;21.10;53.10;;;;;;5033367;28;20051;-55
2022/05/02 11:17:58;;;;;;;8.43;5.18;;;20.90;54.80;;;;;;5047093;28;20056;-56
2022/05/02 11:20:43;;;;;;;6.47;4.60;;;20.90;58.80;;;;;;5052937;28;20755;-56
2022/05/02 11:23:29;;;;;;;4.75;4.30;;;20.90;55.30;;;;;;5052206;28;20052;-61
2022/05/02 11:26:43;;;;;;;5.63;4.88;;;20.80;55.70;;;;;;5051827;28;20036;-56
2022/05/02 11:29:16;;;;;;;4.32;3.88;;;20.70;56.10;;;;;;4984412;28;20144;-57
2022/05/02 11:31:56;;;;;;;5.90;5.22;;;20.70;56.50;;;;;;4958529;28;20057;-57
2022/05/02 11:34:44;;;;;;;5.47;4.68;;;20.70;54.20;;;;;;5032430;28;20144;-58
2022/05/02 11:37:24;;;;;;;5.35;4.13;;;20.80;56.90;;;;;;5034564;28;20052;-57
2022/05/02 11:40:00;;;;;;;4.18;3.78;;;20.90;55.40;;;;;;5049346;28;20107;-56
2022/05/02 11:42:28;;;;;;;7.43;5.28;;;21.10;53.20;;;;;;5032898;28;20849;-58
2022/05/02 11:45:12;;;;;;;4.47;3.85;;;21.20;54.50;;;;;;5033529;28;20077;-56
2022/05/02 11:47:57;;;;;;;4.45;4.05;;;21.30;53.10;;;;;;5014822;28;20215;-56
2022/05/02 11:50:27;;;;;;;3.97;3.38;;;21.20;52.90;;;;;;5018598;28;20040;-57
2022/05/02 11:52:56;;;;;;;5.65;5.10;;;21.20;52.00;;;;;;5032562;28;20777;-58
2022/05/02 11:55:33;;;;;;;5.18;4.68;;;21.20;52.20;;;;;;5033427;28;20085;-57
2022/05/02 11:58:00;;;;;;;;;;;21.20;53.30;;;;;;5014463;28;20072;-57
2022/05/02 12:00:35;;;;;;;5.72;3.67;;;21.20;51.10;;;;;;5033038;28;19924;-57
2022/05/02 12:03:02;;;;;;;6.65;4.10;;;21.20;51.40;;;;;;5032853;28;20052;-56
2022/05/02 12:05:35;;;;;;;3.55;2.75;;;21.20;51.70;;;;;;5014574;28;20041;-57
2022/05/02 12:08:04;;;;;;;6.43;3.88;;;21.20;51.70;;;;;;5048555;28;20041;-57
2022/05/02 12:10:38;;;;;;;5.30;4.00;;;21.30;52.10;;;;;;5052678;28;20549;-56
2022/05/02 12:13:07;;;;;;;6.28;4.05;;;21.40;54.30;;;;;;5032633;28;20081;-57
2022/05/02 12:15:56;;;;;;;5.35;3.30;;;21.50;50.40;;;;;;5037321;28;21031;-58
2022/05/02 12:18:37;;;;;;;4.30;3.17;;;21.50;49.10;;;;;;5036152;28;20188;-57
2022/05/02 12:21:08;;;;;;;3.50;3.20;;;21.70;50.00;;;;;;5018818;28;20033;-57
2022/05/02 12:23:40;;;;;;;5.72;4.93;;;21.80;49.00;;;;;;5037132;28;20384;-57
2022/05/02 12:26:18;;;;;;;5.22;4.32;;;21.90;49.30;;;;;;5037131;28;20060;-57
2022/05/02 12:28:48;;;;;;;10.50;4.10;;;21.80;50.70;;;;;;5040449;28;20041;-55
2022/05/02 12:31:22;;;;;;;3.85;3.40;;;21.90;49.30;;;;;;5036463;28;20106;-58
2022/05/02 12:33:56;;;;;;;4.03;3.47;;;22.00;49.60;;;;;;5036835;28;20101;-60
2022/05/02 12:36:28;;;;;;;6.25;4.00;;;22.10;49.80;;;;;;5035632;28;20052;-57
2022/05/02 12:39:02;;;;;;;3.58;2.92;;;22.00;46.30;;;;;;5035457;28;20733;-58
2022/05/02 12:41:41;;;;;;;8.38;4.03;;;22.00;48.30;;;;;;5052970;28;20049;-56
2022/05/02 12:44:11;;;;;;;3.78;3.38;;;22.10;47.30;;;;;;5056893;28;20051;-58
2022/05/02 12:46:43;;;;;;;4.85;3.90;;;22.20;48.90;;;;;;5056218;28;20039;-57
2022/05/02 12:49:26;;;;;;;3.65;3.33;;;22.30;47.30;;;;;;5037360;28;20499;-58
2022/05/02 12:51:54;;;;;;;3.58;3.08;;;22.30;45.80;;;;;;5039391;28;20048;-58
2022/05/02 12:54:23;;;;;;;3.58;3.25;;;22.40;45.70;;;;;;5035232;28;20314;-59
2022/05/02 13:00:30;;;;;;;3.83;3.25;;;22.60;45.60;;;;;;5035338;28;20586;-58
2022/05/02 13:02:32;;;;;;;5.50;3.07;;;22.70;44.10;;;;;;5036499;28;20103;-58
2022/05/02 13:05:20;;;;;;;6.30;3.30;;;22.80;43.00;;;;;;5035427;28;20452;-58
2022/05/02 13:07:52;;;;;;;4.68;2.90;;;23.00;43.50;;;;;;5036779;28;20041;-59
2022/05/02 13:10:28;;;;;;;4.38;2.88;;;23.10;43.90;;;;;;5055160;28;20512;-59
2022/05/02 13:13:09;;;;;;;4.03;2.27;;;23.00;43.70;;;;;;5036955;28;20037;-59
2022/05/02 13:15:36;;;;;;;2.78;2.10;;;23.00;43.40;;;;;;5039751;28;20546;-60
2022/05/02 13:18:06;;;;;;;5.22;2.70;;;23.00;43.30;;;;;;5035700;28;20051;-58
2022/05/02 13:21:10;;;;;;;5.10;3.08;;;23.00;41.90;;;;;;5035260;28;20051;-60
2022/05/02 13:23:48;;;;;;;4.75;3.10;;;23.00;42.30;;;;;;5035795;28;20132;-60
2022/05/02 13:26:26;;;;;;;3.97;2.17;;;23.00;40.60;;;;;;5035519;28;20660;-59
2022/05/02 13:29:13;;;;;;;2.90;2.47;;;23.00;40.70;;;;;;5038468;28;20052;-58
2022/05/02 13:32:01;;;;;;;5.17;2.57;;;23.10;40.90;;;;;;5017547;28;20059;-58
2022/05/02 13:34:29;;;;;;;3.10;2.72;;;23.20;40.90;;;;;;5015767;28;20044;-59
2022/05/02 13:37:07;;;;;;;1.95;1.80;;;23.20;41.50;;;;;;5035570;28;20048;-60
2022/05/02 13:39:49;;;;;;;2.40;2.20;;;23.30;41.40;;;;;;5057074;28;20044;-59
2022/05/02 13:42:42;;;;;;;2.80;2.60;;;23.40;39.40;;;;;;5037186;28;20098;-60
2022/05/02 13:45:31;;;;;;;2.97;2.50;;;23.40;41.50;;;;;;5055025;28;20064;-61
2022/05/02 13:48:14;;;;;;;4.18;2.60;;;23.30;40.80;;;;;;5054499;28;20504;-62
2022/05/02 13:51:27;;;;;;;4.97;2.40;;;23.20;39.00;;;;;;5036570;28;20049;-59
2022/05/02 13:54:07;;;;;;;2.60;2.40;;;23.20;41.60;;;;;;5033021;28;20044;-61
2022/05/02 13:56:47;;;;;;;2.15;1.95;;;23.20;41.60;;;;;;5034285;28;20421;-59
2022/05/02 13:59:20;;;;;;;2.55;2.15;;;23.20;39.80;;;;;;5016772;28;20048;-61
2022/05/02 14:02:05;;;;;;;2.78;2.45;;;23.20;41.50;;;;;;5034007;28;20539;-61
2022/05/02 14:04:40;;;;;;;3.40;2.90;;;23.30;42.20;;;;;;5034785;28;20049;-58
2022/05/02 14:09:46;;;;;;;3.03;2.65;;;23.20;42.40;;;;;;5054082;28;20055;-60